Time,TemperatureF,DewpointF,PressureIn,WindDirection,WindDirectionDegrees,WindSpeedMPH,WindSpeedGustMPH,Humidity,HourlyPrecipIn,Conditions,Clouds,dailyrainin,SolarRadiationWatts/m^2,SoftwareType,DateUTC
2013-06-17 00:01:00,60.0,44.0,-100.00,SW,234,0.0,4.0,56,0.00,,,0.00,17.000000,,2013-06-17 08:01:00,
2013-06-17 00:11:00,60.0,44.0,-100.00,SW,234,0.0,4.0,56,0.00,,,0.00,17.000000,,2013-06-17 08:11:00,
2013-06-17 00:22:00,60.0,44.0,-100.00,SW,234,0.0,4.0,56,0.00,,,0.00,17.000000,,2013-06-17 08:22:00,
2013-06-17 00:53:00,57.0,44.0,-100.00,East,98,0.0,2.0,62,0.00,,,-99.99,2.000000,,2013-06-17 08:53:00,
2013-06-17 01:02:00,57.0,44.0,-100.00,East,98,0.0,2.0,62,0.00,,,-99.99,2.000000,,2013-06-17 09:02:00,
2013-06-17 01:11:00,57.0,44.0,-100.00,East,98,0.0,2.0,62,0.00,,,-99.99,2.000000,,2013-06-17 09:11:00,
2013-06-17 01:22:00,57.0,44.0,-100.00,East,98,0.0,2.0,62,0.00,,,-99.99,2.000000,,2013-06-17 09:22:00,
2013-06-17 01:53:00,55.0,46.0,-100.00,South,174,0.0,2.0,71,0.00,,,0.00,0.000000,,2013-06-17 09:53:00,
2013-06-17 02:02:00,55.0,46.0,-100.00,South,174,0.0,2.0,71,0.00,,,0.00,0.000000,,2013-06-17 10:02:00,
2013-06-17 02:12:00,55.0,46.0,-100.00,South,174,0.0,2.0,71,0.00,,,0.00,0.000000,,2013-06-17 10:12:00,
2013-06-17 02:22:00,55.0,46.0,-100.00,South,174,0.0,2.0,71,0.00,,,0.00,0.000000,,2013-06-17 10:22:00,
2013-06-17 02:53:00,54.0,46.0,-100.00,NE,34,2.0,3.0,74,0.00,,,0.00,0.000000,,2013-06-17 10:53:00,
2013-06-17 03:02:00,54.0,46.0,-100.00,NE,34,2.0,3.0,74,0.00,,,0.00,0.000000,,2013-06-17 11:02:00,
2013-06-17 03:11:00,54.0,46.0,-100.00,NE,34,2.0,3.0,74,0.00,,,0.00,0.000000,,2013-06-17 11:11:00,
2013-06-17 03:23:00,54.0,46.0,-100.00,NE,34,2.0,3.0,74,0.00,,,0.00,0.000000,,2013-06-17 11:23:00,
2013-06-17 03:53:00,50.0,45.0,-100.00,NNE,27,0.0,3.0,82,0.00,,,0.00,0.000000,,2013-06-17 11:53:00,
2013-06-17 04:02:00,50.0,45.0,-100.00,NNE,27,0.0,3.0,82,0.00,,,0.00,0.000000,,2013-06-17 12:02:00,
2013-06-17 04:11:00,50.0,45.0,-100.00,NNE,27,0.0,3.0,82,0.00,,,0.00,0.000000,,2013-06-17 12:11:00,
2013-06-17 04:22:00,50.0,45.0,-100.00,NNE,27,0.0,3.0,82,0.00,,,0.00,0.000000,,2013-06-17 12:22:00,
2013-06-17 04:53:00,49.0,45.0,-100.00,NE,45,1.0,3.0,86,0.00,,,0.00,1.000000,,2013-06-17 12:53:00,
2013-06-17 05:01:00,49.0,45.0,-100.00,NE,45,1.0,3.0,86,0.00,,,0.00,1.000000,,2013-06-17 13:01:00,
2013-06-17 05:11:00,49.0,45.0,-100.00,NE,45,1.0,3.0,86,0.00,,,0.00,1.000000,,2013-06-17 13:11:00,
2013-06-17 05:22:00,49.0,45.0,-100.00,NE,45,1.0,3.0,86,0.00,,,0.00,1.000000,,2013-06-17 13:22:00,
2013-06-17 05:53:00,47.0,44.0,-100.00,NNE,31,0.0,2.0,88,0.00,,,0.00,8.000000,,2013-06-17 13:53:00,
2013-06-17 06:02:00,47.0,44.0,-100.00,NNE,31,0.0,2.0,88,0.00,,,0.00,8.000000,,2013-06-17 14:02:00,
2013-06-17 06:11:00,47.0,44.0,-100.00,NNE,31,0.0,2.0,88,0.00,,,0.00,8.000000,,2013-06-17 14:11:00,
2013-06-17 06:22:00,47.0,44.0,-100.00,NNE,31,0.0,2.0,88,0.00,,,0.00,8.000000,,2013-06-17 14:22:00,
2013-06-17 06:53:00,48.0,45.0,-100.00,NE,40,0.0,1.0,88,0.00,,,0.00,23.000000,,2013-06-17 14:53:00,
2013-06-17 07:01:00,48.0,45.0,-100.00,NE,40,0.0,1.0,88,0.00,,,0.00,23.000000,,2013-06-17 15:01:00,
2013-06-17 07:12:00,48.0,45.0,-100.00,NE,40,0.0,1.0,88,0.00,,,0.00,23.000000,,2013-06-17 15:12:00,
2013-06-17 07:22:00,48.0,45.0,-100.00,NE,40,0.0,1.0,88,0.00,,,0.00,23.000000,,2013-06-17 15:22:00,
2013-06-17 07:52:00,57.0,48.0,-100.00,SSE,163,0.0,2.0,72,0.00,,,0.00,155.000000,,2013-06-17 15:52:00,
2013-06-17 08:02:00,57.0,48.0,-100.00,SSE,163,0.0,2.0,72,0.00,,,0.00,155.000000,,2013-06-17 16:02:00,
2013-06-17 08:11:00,57.0,48.0,-100.00,SSE,163,0.0,2.0,72,0.00,,,0.00,155.000000,,2013-06-17 16:11:00,
2013-06-17 08:22:00,57.0,48.0,-100.00,SSE,163,0.0,2.0,72,0.00,,,0.00,155.000000,,2013-06-17 16:22:00,
2013-06-17 08:53:00,61.0,50.0,-100.00,WNW,294,0.0,4.0,66,0.00,,,0.00,257.000000,,2013-06-17 16:53:00,
2013-06-17 09:02:00,61.0,50.0,-100.00,WNW,294,0.0,4.0,66,0.00,,,0.00,257.000000,,2013-06-17 17:02:00,
2013-06-17 09:11:00,61.0,50.0,-100.00,WNW,294,0.0,4.0,66,0.00,,,0.00,257.000000,,2013-06-17 17:11:00,
2013-06-17 09:22:00,61.0,50.0,-100.00,WNW,294,0.0,4.0,66,0.00,,,0.00,257.000000,,2013-06-17 17:22:00,
2013-06-17 09:52:00,65.0,51.0,-100.00,NW,306,1.0,4.0,60,0.00,,,0.00,386.000000,,2013-06-17 17:52:00,
2013-06-17 10:01:00,65.0,51.0,-100.00,NW,306,1.0,4.0,60,0.00,,,0.00,386.000000,,2013-06-17 18:01:00,
2013-06-17 10:11:00,65.0,51.0,-100.00,NW,306,1.0,4.0,60,0.00,,,0.00,386.000000,,2013-06-17 18:11:00,
2013-06-17 10:23:00,65.0,51.0,-100.00,NW,306,1.0,4.0,60,0.00,,,0.00,386.000000,,2013-06-17 18:23:00,
2013-06-17 10:53:00,70.0,50.0,-100.00,West,280,2.0,5.0,50,0.00,,,0.00,554.000000,,2013-06-17 18:53:00,
2013-06-17 11:02:00,70.0,50.0,-100.00,West,280,2.0,5.0,50,0.00,,,0.00,554.000000,,2013-06-17 19:02:00,
2013-06-17 11:11:00,70.0,50.0,-100.00,West,280,2.0,5.0,50,0.00,,,0.00,554.000000,,2013-06-17 19:11:00,
2013-06-17 11:22:00,70.0,50.0,-100.00,West,280,2.0,5.0,50,0.00,,,0.00,554.000000,,2013-06-17 19:22:00,
2013-06-17 11:54:00,71.0,49.0,-100.00,WSW,238,2.0,8.0,46,0.00,,,0.00,656.000000,,2013-06-17 19:54:00,
2013-06-17 12:02:00,71.0,49.0,-100.00,WSW,238,2.0,8.0,46,0.00,,,0.00,656.000000,,2013-06-17 20:02:00,
2013-06-17 12:11:00,71.0,49.0,-100.00,WSW,238,2.0,8.0,46,0.00,,,0.00,656.000000,,2013-06-17 20:11:00,
2013-06-17 12:22:00,71.0,49.0,-100.00,WSW,238,2.0,8.0,46,0.00,,,0.00,656.000000,,2013-06-17 20:22:00,
2013-06-17 12:52:00,75.0,50.0,-100.00,West,273,1.0,7.0,41,0.00,,,0.00,735.000000,,2013-06-17 20:52:00,
2013-06-17 13:01:00,75.0,50.0,-100.00,West,273,1.0,7.0,41,0.00,,,0.00,735.000000,,2013-06-17 21:01:00,
2013-06-17 13:12:00,75.0,50.0,-100.00,West,273,1.0,7.0,41,0.00,,,0.00,735.000000,,2013-06-17 21:12:00,
2013-06-17 14:53:00,82.0,52.0,-100.00,NW,311,2.0,6.0,35,-99.99,,,0.00,795.000000,,2013-06-17 22:53:00,
2013-06-17 15:53:00,81.0,51.0,-100.00,WSW,253,5.0,9.0,35,-99.99,,,0.00,771.000000,,2013-06-17 23:53:00,
2013-06-17 16:01:00,81.0,51.0,-100.00,WSW,253,5.0,9.0,35,-99.99,,,0.00,771.000000,,2013-06-18 00:01:00,
2013-06-17 16:12:00,81.0,51.0,-100.00,WSW,253,5.0,9.0,35,-99.99,,,0.00,771.000000,,2013-06-18 00:12:00,
2013-06-17 16:52:00,84.0,52.0,-100.00,West,264,2.0,9.0,33,-99.99,,,0.00,715.000000,,2013-06-18 00:52:00,
2013-06-17 17:53:00,83.0,52.0,-100.00,West,263,3.0,9.0,34,-99.99,,,0.00,628.000000,,2013-06-18 01:53:00,
2013-06-17 18:02:00,83.0,52.0,-100.00,West,263,3.0,9.0,34,-99.99,,,0.00,628.000000,,2013-06-18 02:02:00,
2013-06-17 18:11:00,83.0,52.0,-100.00,West,263,3.0,9.0,34,-99.99,,,0.00,628.000000,,2013-06-18 02:11:00,
2013-06-17 18:53:00,84.0,53.0,-100.00,West,259,1.0,9.0,34,-99.99,,,0.00,516.000000,,2013-06-18 02:53:00,
2013-06-17 19:02:00,84.0,53.0,-100.00,West,259,1.0,9.0,34,-99.99,,,0.00,516.000000,,2013-06-18 03:02:00,
2013-06-17 19:12:00,84.0,53.0,-100.00,West,259,1.0,9.0,34,-99.99,,,0.00,516.000000,,2013-06-18 03:12:00,
2013-06-17 19:53:00,78.0,49.0,-100.00,WSW,242,4.0,8.0,36,-99.99,,,0.00,394.000000,,2013-06-18 03:53:00,
2013-06-17 20:01:00,78.0,49.0,-100.00,WSW,242,4.0,8.0,36,-99.99,,,0.00,394.000000,,2013-06-18 04:01:00,
2013-06-17 20:54:00,76.0,48.0,-100.00,West,267,2.0,7.0,37,-99.99,,,0.00,271.000000,,2013-06-18 04:54:00,
2013-06-17 21:02:00,76.0,48.0,-100.00,West,267,2.0,7.0,37,-99.99,,,0.00,271.000000,,2013-06-18 05:02:00,
2013-06-17 21:12:00,76.0,48.0,-100.00,West,267,2.0,7.0,37,-99.99,,,0.00,271.000000,,2013-06-18 05:12:00,
2013-06-17 21:22:00,76.0,48.0,-100.00,West,267,2.0,7.0,37,-99.99,,,0.00,271.000000,,2013-06-18 05:22:00,
2013-06-17 21:53:00,73.0,49.0,-100.00,WNW,288,0.0,6.0,43,0.00,,,0.00,51.000000,,2013-06-18 05:53:00,
2013-06-17 22:02:00,73.0,49.0,-100.00,WNW,288,0.0,6.0,43,0.00,,,0.00,51.000000,,2013-06-18 06:02:00,
2013-06-17 22:11:00,73.0,49.0,-100.00,WNW,288,0.0,6.0,43,0.00,,,0.00,51.000000,,2013-06-18 06:11:00,
2013-06-17 22:23:00,73.0,49.0,-100.00,WNW,288,0.0,6.0,43,0.00,,,0.00,51.000000,,2013-06-18 06:23:00,
2013-06-17 22:53:00,70.0,48.0,-100.00,SSW,204,2.0,4.0,45,0.00,,,0.00,28.000000,,2013-06-18 06:53:00,
2013-06-17 23:02:00,70.0,48.0,-100.00,SSW,204,2.0,4.0,45,0.00,,,0.00,28.000000,,2013-06-18 07:02:00,
2013-06-17 23:12:00,70.0,48.0,-100.00,SSW,204,2.0,4.0,45,0.00,,,0.00,28.000000,,2013-06-18 07:12:00,
2013-06-17 23:22:00,70.0,48.0,-100.00,SSW,204,2.0,4.0,45,0.00,,,0.00,28.000000,,2013-06-18 07:22:00,
2013-06-17 23:53:00,65.0,48.0,-100.00,South,190,0.0,4.0,55,0.00,,,0.00,14.000000,,2013-06-18 07:53:00,